createdAt,value
2022-08-17T00:00:34.883Z,100.00
2022-08-17T00:03:09.986Z,100.00
2022-08-17T00:05:42.347Z,100.00
2022-08-17T00:08:10.861Z,100.00
2022-08-17T00:10:38.730Z,100.00
2022-08-17T00:13:08.523Z,100.00
2022-08-17T00:15:36.480Z,100.00
2022-08-17T00:18:04.741Z,100.00
2022-08-17T00:20:54.963Z,100.00
2022-08-17T00:23:23.569Z,100.00
2022-08-17T00:25:51.591Z,100.00
2022-08-17T00:28:20.932Z,100.00
2022-08-17T00:30:53.388Z,100.00
2022-08-17T00:33:24.079Z,100.00
2022-08-17T00:35:53.994Z,100.00
2022-08-17T00:38:22.879Z,100.00
2022-08-17T00:40:55.934Z,100.00
2022-08-17T00:43:32.154Z,100.00
2022-08-17T00:46:01.366Z,100.00
2022-08-17T00:48:30.873Z,100.00
2022-08-17T00:51:09.037Z,100.00
2022-08-17T00:53:41.827Z,100.00
2022-08-17T00:56:13.674Z,100.00
2022-08-17T00:58:42.159Z,100.00
2022-08-17T01:01:12.348Z,100.00
2022-08-17T01:03:49.734Z,100.00
2022-08-17T01:06:19.285Z,100.00
2022-08-17T01:08:47.325Z,100.00
2022-08-17T01:11:15.400Z,100.00
2022-08-17T01:13:44.746Z,100.00
2022-08-17T01:16:16.961Z,100.00
2022-08-17T01:18:47.626Z,100.00
2022-08-17T01:21:25.590Z,100.00
2022-08-17T01:23:55.005Z,100.00
2022-08-17T01:26:23.622Z,100.00
2022-08-17T01:28:54.242Z,100.00
2022-08-17T01:31:25.049Z,100.00
2022-08-17T01:33:52.884Z,100.00
2022-08-17T01:36:20.768Z,100.00
2022-08-17T01:38:48.785Z,100.00
2022-08-17T01:41:18.220Z,100.00
2022-08-17T01:43:51.894Z,100.00
2022-08-17T01:46:25.961Z,100.00
2022-08-17T01:48:54.529Z,100.00
2022-08-17T01:51:22.705Z,100.00
2022-08-17T01:53:53.698Z,100.00
2022-08-17T01:56:25.318Z,100.00
2022-08-17T01:58:54.163Z,100.00
2022-08-17T02:01:24.593Z,100.00
2022-08-17T02:03:53.255Z,100.00
2022-08-17T02:06:28.940Z,100.00
2022-08-17T02:09:02.291Z,100.00
2022-08-17T02:11:35.243Z,100.00
2022-08-17T02:14:05.277Z,100.00
2022-08-17T02:16:37.889Z,100.00
2022-08-17T02:19:07.653Z,100.00
2022-08-17T02:21:35.957Z,100.00
2022-08-17T02:24:04.465Z,100.00
2022-08-17T02:26:33.699Z,100.00
2022-08-17T02:29:01.939Z,100.00
2022-08-17T02:31:30.019Z,100.00
2022-08-17T02:34:03.445Z,100.00
2022-08-17T02:36:32.520Z,100.00
2022-08-17T02:39:01.484Z,100.00
2022-08-17T02:41:29.408Z,100.00
2022-08-17T02:43:58.681Z,100.00
2022-08-17T02:46:27.110Z,100.00
2022-08-17T02:48:54.825Z,100.00
2022-08-17T02:51:22.952Z,100.00
2022-08-17T02:53:50.778Z,100.00
2022-08-17T02:56:18.549Z,100.00
2022-08-17T02:58:46.415Z,100.00
2022-08-17T03:01:15.939Z,100.00
2022-08-17T03:03:44.063Z,100.00
2022-08-17T03:06:12.336Z,100.00
2022-08-17T03:08:40.586Z,100.00
2022-08-17T03:11:08.489Z,100.00
2022-08-17T03:13:36.502Z,100.00
2022-08-17T03:16:04.734Z,100.00
2022-08-17T03:18:34.034Z,100.00
2022-08-17T03:21:04.300Z,100.00
2022-08-17T03:23:33.714Z,100.00
2022-08-17T03:26:01.986Z,100.00
2022-08-17T03:28:30.135Z,100.00
2022-08-17T03:30:58.011Z,100.00
2022-08-17T03:33:25.867Z,100.00
2022-08-17T03:35:55.084Z,100.00
2022-08-17T03:38:23.196Z,100.00
2022-08-17T03:40:56.290Z,100.00
2022-08-17T03:43:29.297Z,100.00
2022-08-17T03:46:28.233Z,100.00
2022-08-17T03:49:20.634Z,100.00
2022-08-17T03:52:07.397Z,100.00
2022-08-17T03:54:53.170Z,100.00
2022-08-17T03:57:21.222Z,100.00
2022-08-17T03:59:49.456Z,100.00
2022-08-17T04:02:20.702Z,100.00
2022-08-17T04:04:50.794Z,100.00
2022-08-17T04:07:22.779Z,100.00
2022-08-17T04:09:50.579Z,100.00
2022-08-17T04:12:26.014Z,100.00
2022-08-17T04:14:55.253Z,100.00
2022-08-17T04:17:26.320Z,100.00
2022-08-17T04:19:55.418Z,100.00
2022-08-17T04:22:33.005Z,100.00
2022-08-17T04:25:08.441Z,100.00
2022-08-17T04:27:36.687Z,100.00
2022-08-17T04:30:07.874Z,100.00
2022-08-17T04:33:04.150Z,100.00
2022-08-17T04:35:37.136Z,100.00
2022-08-17T04:38:07.149Z,100.00
2022-08-17T04:40:52.461Z,100.00
2022-08-17T04:43:22.578Z,100.00
2022-08-17T04:45:55.406Z,100.00
2022-08-17T04:48:29.589Z,100.00
2022-08-17T04:51:10.351Z,100.00
2022-08-17T04:53:41.221Z,100.00
2022-08-17T04:56:11.684Z,100.00
2022-08-17T04:58:46.278Z,100.00
2022-08-17T05:01:14.871Z,100.00
2022-08-17T05:03:42.947Z,100.00
2022-08-17T05:06:11.760Z,100.00
2022-08-17T05:08:40.998Z,100.00
2022-08-17T05:11:09.353Z,100.00
2022-08-17T05:13:37.283Z,100.00
2022-08-17T05:16:06.190Z,100.00
2022-08-17T05:18:33.941Z,100.00
2022-08-17T05:21:03.820Z,100.00
2022-08-17T05:23:42.246Z,100.00
2022-08-17T05:26:21.382Z,100.00
2022-08-17T05:28:57.120Z,100.00
2022-08-17T05:31:28.863Z,100.00
2022-08-17T05:33:56.714Z,100.00
2022-08-17T05:36:41.640Z,100.00
2022-08-17T05:39:15.868Z,100.00
2022-08-17T05:41:47.773Z,100.00
2022-08-17T05:44:15.878Z,100.00
2022-08-17T05:46:49.058Z,100.00
2022-08-17T05:49:20.129Z,100.00
2022-08-17T05:52:19.956Z,100.00
2022-08-17T05:55:02.189Z,100.00
2022-08-17T05:57:43.359Z,100.00
2022-08-17T06:00:30.413Z,100.00
2022-08-17T06:03:11.835Z,100.00
2022-08-17T06:05:55.531Z,100.00
2022-08-17T06:08:32.266Z,100.00
2022-08-17T06:11:07.796Z,100.00
2022-08-17T06:13:54.677Z,100.00
2022-08-17T06:16:34.142Z,100.00
2022-08-17T06:19:06.021Z,100.00
2022-08-17T06:21:37.049Z,100.00
2022-08-17T06:24:09.021Z,100.00
2022-08-17T06:26:43.269Z,100.00
2022-08-17T06:29:22.333Z,100.00
2022-08-17T06:31:51.054Z,100.00
2022-08-17T06:34:21.668Z,100.00
2022-08-17T06:36:57.635Z,100.00
2022-08-17T06:39:41.428Z,100.00
2022-08-17T06:43:02.398Z,100.00
2022-08-17T06:45:18.998Z,100.00
2022-08-17T06:47:52.800Z,100.00
2022-08-17T06:50:29.727Z,100.00
2022-08-17T06:53:05.505Z,100.00
2022-08-17T06:55:44.121Z,100.00
2022-08-17T06:58:16.503Z,100.00
2022-08-17T07:00:48.830Z,100.00
2022-08-17T07:03:27.462Z,100.00
2022-08-17T07:06:00.123Z,100.00
2022-08-17T07:08:35.079Z,100.00
2022-08-17T07:11:07.781Z,100.00
2022-08-17T07:13:51.452Z,100.00
2022-08-17T07:16:27.417Z,100.00
2022-08-17T07:18:58.646Z,100.00
2022-08-17T07:21:45.951Z,100.00
2022-08-17T07:24:30.714Z,100.00
2022-08-17T07:27:12.056Z,100.00
2022-08-17T07:29:44.152Z,100.00
2022-08-17T07:32:18.490Z,100.00
2022-08-17T07:35:10.743Z,100.00
2022-08-17T07:37:40.881Z,100.00
2022-08-17T07:40:22.253Z,100.00
2022-08-17T07:43:06.501Z,100.00
2022-08-17T07:45:53.237Z,100.00
2022-08-17T07:48:27.350Z,100.00
2022-08-17T07:50:55.221Z,100.00
2022-08-17T07:53:25.701Z,100.00
2022-08-17T07:55:54.580Z,100.00
2022-08-17T07:58:24.604Z,100.00
2022-08-17T08:01:08.889Z,100.00
2022-08-17T08:03:43.893Z,100.00
2022-08-17T08:06:21.746Z,100.00
2022-08-17T08:08:54.728Z,100.00
2022-08-17T08:11:34.870Z,100.00
2022-08-17T08:14:18.946Z,100.00
2022-08-17T08:16:58.987Z,100.00
2022-08-17T08:19:29.602Z,100.00
2022-08-17T08:22:05.516Z,100.00
2022-08-17T08:24:57.907Z,100.00
2022-08-17T08:27:37.570Z,100.00
2022-08-17T08:30:10.156Z,100.00
2022-08-17T08:32:54.365Z,100.00
2022-08-17T08:35:32.472Z,100.00
2022-08-17T08:38:10.897Z,100.00
2022-08-17T08:40:57.059Z,100.00
2022-08-17T08:43:37.110Z,100.00
2022-08-17T08:46:13.369Z,100.00
2022-08-17T08:49:11.880Z,100.00
2022-08-17T08:51:51.641Z,100.00
2022-08-17T08:54:34.847Z,100.00
2022-08-17T08:57:26.782Z,100.00
2022-08-17T09:00:08.560Z,100.00
2022-08-17T09:02:55.169Z,100.00
2022-08-17T09:05:32.980Z,100.00
2022-08-17T09:08:12.570Z,100.00
2022-08-17T09:10:55.966Z,100.00
2022-08-17T09:13:31.263Z,100.00
2022-08-17T09:16:03.978Z,100.00
2022-08-17T09:19:00.418Z,100.00
2022-08-17T09:21:33.688Z,100.00
2022-08-17T09:24:12.754Z,100.00
2022-08-17T09:26:47.461Z,100.00
2022-08-17T09:29:17.894Z,100.00
2022-08-17T09:31:55.016Z,100.00
2022-08-17T09:34:33.082Z,100.00
2022-08-17T09:37:14.231Z,100.00
2022-08-17T09:39:52.388Z,100.00
2022-08-17T09:42:27.979Z,100.00
2022-08-17T09:45:03.798Z,100.00
2022-08-17T09:47:36.868Z,100.00
2022-08-17T09:50:11.516Z,100.00
2022-08-17T09:52:39.528Z,100.00
2022-08-17T09:55:09.287Z,100.00
2022-08-17T09:57:51.459Z,100.00
2022-08-17T10:00:26.341Z,100.00
2022-08-17T10:03:29.110Z,100.00
2022-08-17T10:06:06.479Z,100.00
2022-08-17T10:08:40.849Z,100.00
2022-08-17T10:11:22.521Z,100.00
2022-08-17T10:14:36.742Z,98.99
2022-08-17T10:17:04.087Z,100.00
2022-08-17T10:19:38.780Z,95.20
2022-08-17T10:22:35.415Z,97.82
2022-08-17T10:25:42.550Z,95.18
2022-08-17T10:28:24.695Z,95.29
2022-08-17T10:31:23.432Z,95.58
2022-08-17T10:33:59.798Z,88.40
2022-08-17T10:36:37.936Z,94.10
2022-08-17T10:39:22.679Z,91.20
2022-08-17T10:41:54.005Z,98.00
2022-08-17T10:44:38.828Z,92.67
2022-08-17T10:47:11.626Z,94.38
2022-08-17T10:49:47.723Z,93.81
2022-08-17T10:52:48.629Z,85.61
2022-08-17T10:55:20.325Z,88.69
2022-08-17T10:57:50.638Z,90.51
2022-08-17T11:01:08.944Z,83.37
2022-08-17T11:03:38.241Z,84.41
2022-08-17T11:06:17.852Z,87.85
2022-08-17T11:09:03.665Z,84.71
2022-08-17T11:11:54.231Z,82.93
2022-08-17T11:14:49.649Z,80.73
2022-08-17T11:17:32.401Z,79.75
2022-08-17T11:20:41.625Z,82.47
2022-08-17T11:23:37.373Z,82.13
2022-08-17T11:26:23.061Z,83.77
2022-08-17T11:28:54.349Z,76.92
2022-08-17T11:31:38.662Z,77.60
2022-08-17T11:34:15.093Z,79.01
2022-08-17T11:37:02.604Z,79.52
2022-08-17T11:40:09.016Z,77.31
2022-08-17T11:43:04.475Z,76.76
2022-08-17T11:45:53.971Z,77.64
2022-08-17T11:48:51.302Z,75.45
2022-08-17T11:51:37.144Z,73.76
2022-08-17T11:54:32.444Z,74.54
2022-08-17T11:57:22.296Z,75.13
2022-08-17T12:00:00.794Z,74.34
2022-08-17T12:02:47.371Z,73.03
2022-08-17T12:05:28.854Z,75.86
2022-08-17T12:08:08.603Z,70.68
2022-08-17T12:10:50.721Z,72.45
2022-08-17T12:13:19.802Z,68.04
2022-08-17T12:15:52.879Z,70.77
2022-08-17T12:18:23.321Z,74.94
2022-08-17T12:21:08.670Z,70.19
2022-08-17T12:23:44.129Z,69.82
2022-08-17T12:26:19.576Z,73.68
2022-08-17T12:28:50.148Z,71.41
2022-08-17T12:31:22.963Z,70.16
2022-08-17T12:33:53.199Z,71.44
2022-08-17T12:36:25.579Z,70.63
2022-08-17T12:38:59.420Z,70.11
2022-08-17T12:41:44.245Z,75.31
2022-08-17T12:44:16.063Z,73.87
2022-08-17T12:46:56.569Z,70.24
2022-08-17T12:49:29.565Z,67.90
2022-08-17T12:52:15.670Z,71.62
2022-08-17T12:54:50.777Z,72.46
2022-08-17T12:57:21.704Z,75.26
2022-08-17T12:59:55.109Z,71.33
2022-08-17T13:02:32.602Z,66.43
2022-08-17T13:05:02.473Z,70.58
2022-08-17T13:07:36.271Z,63.63
2022-08-17T13:10:05.821Z,68.04
2022-08-17T13:12:36.398Z,64.76
2022-08-17T13:15:04.846Z,64.27
2022-08-17T13:17:37.035Z,66.86
2022-08-17T13:20:06.960Z,68.01
2022-08-17T13:22:35.035Z,72.43
2022-08-17T13:25:08.424Z,69.14
2022-08-17T13:27:38.240Z,68.96
2022-08-17T13:30:11.839Z,74.03
2022-08-17T13:32:44.991Z,73.53
2022-08-17T13:35:39.724Z,73.98
2022-08-17T13:38:11.694Z,73.43
2022-08-17T13:40:42.239Z,71.95
2022-08-17T13:43:11.946Z,73.34
2022-08-17T13:45:53.460Z,73.92
2022-08-17T13:48:29.039Z,73.44
2022-08-17T13:51:20.983Z,72.69
2022-08-17T13:53:54.456Z,74.47
2022-08-17T13:56:36.964Z,73.82
2022-08-17T13:59:09.174Z,72.68
2022-08-17T14:01:40.343Z,73.67
2022-08-17T14:04:13.078Z,74.80
2022-08-17T14:06:53.302Z,74.47
2022-08-17T14:09:24.003Z,76.81
2022-08-17T14:11:52.761Z,77.04
2022-08-17T14:14:23.122Z,80.23
2022-08-17T14:16:51.635Z,82.09
2022-08-17T14:19:21.896Z,83.39
2022-08-17T14:21:50.172Z,84.02
2022-08-17T14:24:23.995Z,83.24
2022-08-17T14:26:53.018Z,77.52
2022-08-17T14:29:22.320Z,81.44
2022-08-17T14:31:54.264Z,75.53
2022-08-17T14:34:25.137Z,73.43
2022-08-17T14:36:53.728Z,68.03
2022-08-17T14:39:21.854Z,68.17
2022-08-17T14:41:50.834Z,65.00
2022-08-17T14:44:18.650Z,64.98
2022-08-17T14:46:47.922Z,63.09
2022-08-17T14:49:16.075Z,65.56
2022-08-17T14:51:45.140Z,62.28
2022-08-17T14:54:34.319Z,62.98
2022-08-17T14:57:22.171Z,61.46
2022-08-17T14:59:53.365Z,63.80
2022-08-17T15:02:29.672Z,60.99
2022-08-17T15:05:02.469Z,58.81
2022-08-17T15:07:32.132Z,57.15
2022-08-17T15:10:01.491Z,58.22
2022-08-17T15:12:34.718Z,59.18
2022-08-17T15:15:04.880Z,58.64
2022-08-17T15:17:43.992Z,60.63
2022-08-17T15:20:15.920Z,59.85
2022-08-17T15:22:46.348Z,60.78
2022-08-17T15:25:15.605Z,60.95
2022-08-17T15:27:43.984Z,59.23
2022-08-17T15:30:13.038Z,60.52
2022-08-17T15:32:50.605Z,62.39
2022-08-17T15:35:28.341Z,62.43
2022-08-17T15:38:08.346Z,63.63
2022-08-17T15:40:41.478Z,62.89
2022-08-17T15:43:11.576Z,63.61
2022-08-17T15:45:40.378Z,60.44
2022-08-17T15:48:08.903Z,59.73
2022-08-17T15:50:37.454Z,56.59
2022-08-17T15:53:06.611Z,58.96
2022-08-17T15:55:35.106Z,59.28
2022-08-17T15:58:03.858Z,59.10
2022-08-17T16:00:37.472Z,62.15
2022-08-17T16:03:58.130Z,63.07
2022-08-17T16:06:08.499Z,67.05
2022-08-17T16:08:43.486Z,69.67
2022-08-17T16:11:12.221Z,71.58
2022-08-17T16:13:40.618Z,73.47
2022-08-17T16:16:09.101Z,74.96
2022-08-17T16:18:37.523Z,76.66
2022-08-17T16:21:22.563Z,78.22
2022-08-17T16:23:54.311Z,81.28
2022-08-17T16:26:22.886Z,82.89
2022-08-17T16:28:51.308Z,82.42
2022-08-17T16:31:19.135Z,83.53
2022-08-17T16:34:15.460Z,83.49
2022-08-17T16:36:35.526Z,85.36
2022-08-17T16:39:05.123Z,88.19
2022-08-17T16:41:45.317Z,88.98
2022-08-17T16:44:15.483Z,89.29
2022-08-17T16:46:45.835Z,87.73
2022-08-17T16:49:24.410Z,87.25
2022-08-17T16:52:03.991Z,88.87
2022-08-17T16:54:35.394Z,92.39
2022-08-17T16:57:04.979Z,93.24
2022-08-17T16:59:41.138Z,94.29
2022-08-17T17:02:13.872Z,97.76
2022-08-17T17:04:48.009Z,97.92
2022-08-17T17:07:38.711Z,99.83
2022-08-17T17:10:10.905Z,100.00
2022-08-17T17:13:02.594Z,100.00
2022-08-17T17:15:40.321Z,100.00
2022-08-17T17:18:12.693Z,100.00
2022-08-17T17:20:47.645Z,100.00
2022-08-17T17:23:30.259Z,100.00
2022-08-17T17:26:10.910Z,100.00
2022-08-17T17:28:49.042Z,100.00
2022-08-17T17:31:20.371Z,100.00
2022-08-17T17:33:51.004Z,100.00
2022-08-17T17:36:25.428Z,100.00
2022-08-17T17:38:55.574Z,100.00
2022-08-17T17:41:31.495Z,100.00
2022-08-17T17:44:03.533Z,100.00
2022-08-17T17:46:37.753Z,100.00
2022-08-17T17:49:05.981Z,100.00
2022-08-17T17:51:54.808Z,100.00
2022-08-17T17:54:44.795Z,100.00
2022-08-17T17:57:21.236Z,100.00
2022-08-17T17:59:57.650Z,100.00
2022-08-17T18:02:52.018Z,100.00
2022-08-17T18:05:48.698Z,100.00
2022-08-17T18:08:39.451Z,100.00
2022-08-17T18:11:20.864Z,100.00
2022-08-17T18:14:06.032Z,100.00
2022-08-17T18:16:35.634Z,100.00
2022-08-17T18:19:03.578Z,100.00
2022-08-17T18:21:38.811Z,100.00
2022-08-17T18:24:10.558Z,100.00
2022-08-17T18:26:52.324Z,100.00
2022-08-17T18:29:34.278Z,100.00
2022-08-17T18:32:19.426Z,100.00
2022-08-17T18:34:49.569Z,100.00
2022-08-17T18:37:33.059Z,100.00
2022-08-17T18:40:24.337Z,100.00
2022-08-17T18:43:00.954Z,100.00
2022-08-17T18:45:35.806Z,100.00
2022-08-17T18:48:04.301Z,100.00
2022-08-17T18:50:39.516Z,100.00
2022-08-17T18:53:26.791Z,100.00
2022-08-17T18:56:31.202Z,100.00
2022-08-17T18:59:06.143Z,100.00
2022-08-17T19:01:53.347Z,100.00
2022-08-17T19:04:36.433Z,100.00
2022-08-17T19:07:27.262Z,100.00
2022-08-17T19:09:59.561Z,100.00
2022-08-17T19:12:37.996Z,100.00
2022-08-17T19:15:09.394Z,100.00
2022-08-17T19:17:44.148Z,100.00
2022-08-17T19:20:18.499Z,100.00
2022-08-17T19:23:06.293Z,100.00
2022-08-17T19:25:37.022Z,100.00
2022-08-17T19:28:21.543Z,100.00
2022-08-17T19:30:51.422Z,100.00
2022-08-17T19:33:20.975Z,100.00
2022-08-17T19:35:59.855Z,100.00
2022-08-17T19:38:39.826Z,100.00
2022-08-17T19:41:12.903Z,100.00
2022-08-17T19:43:57.034Z,100.00
2022-08-17T19:46:35.673Z,100.00
2022-08-17T19:49:12.593Z,100.00
2022-08-17T19:51:52.030Z,100.00
2022-08-17T19:54:26.935Z,100.00
2022-08-17T19:57:03.194Z,100.00
2022-08-17T19:59:48.830Z,100.00
2022-08-17T20:02:29.021Z,100.00
2022-08-17T20:05:02.502Z,100.00
2022-08-17T20:07:42.171Z,100.00
2022-08-17T20:10:13.485Z,100.00
2022-08-17T20:12:45.002Z,100.00
2022-08-17T20:15:18.002Z,100.00
2022-08-17T20:17:47.887Z,100.00
2022-08-17T20:20:29.730Z,100.00
2022-08-17T20:23:03.681Z,100.00
2022-08-17T20:25:39.227Z,100.00
2022-08-17T20:28:23.714Z,100.00
2022-08-17T20:30:52.951Z,100.00
2022-08-17T20:33:27.935Z,100.00
2022-08-17T20:36:15.941Z,100.00
2022-08-17T20:38:47.059Z,100.00
2022-08-17T20:41:16.807Z,100.00
2022-08-17T20:43:51.322Z,100.00
2022-08-17T20:46:31.365Z,100.00
2022-08-17T20:49:14.725Z,100.00
2022-08-17T20:52:01.647Z,100.00
2022-08-17T20:54:44.222Z,100.00
2022-08-17T20:57:45.510Z,100.00
2022-08-17T21:00:34.263Z,100.00
2022-08-17T21:03:51.177Z,100.00
2022-08-17T21:06:23.318Z,100.00
2022-08-17T21:08:54.302Z,100.00
2022-08-17T21:11:57.335Z,100.00
2022-08-17T21:14:41.939Z,100.00
2022-08-17T21:17:26.342Z,100.00
2022-08-17T21:20:17.119Z,100.00
2022-08-17T21:22:59.061Z,100.00
2022-08-17T21:25:49.055Z,100.00
2022-08-17T21:29:01.361Z,100.00
2022-08-17T21:31:35.773Z,100.00
2022-08-17T21:34:33.396Z,100.00
2022-08-17T21:37:29.687Z,100.00
2022-08-17T21:40:01.119Z,100.00
2022-08-17T21:42:32.471Z,100.00
2022-08-17T21:45:10.072Z,100.00
2022-08-17T21:47:45.426Z,100.00
2022-08-17T21:50:19.933Z,100.00
2022-08-17T21:52:49.963Z,100.00
2022-08-17T21:55:28.196Z,100.00
2022-08-17T21:58:13.848Z,100.00
2022-08-17T22:00:44.980Z,100.00
2022-08-17T22:03:24.564Z,100.00
2022-08-17T22:05:52.497Z,100.00
2022-08-17T22:08:23.578Z,100.00
2022-08-17T22:11:31.589Z,100.00
2022-08-17T22:14:06.000Z,100.00
2022-08-17T22:16:34.801Z,100.00
2022-08-17T22:19:06.490Z,100.00
2022-08-17T22:21:34.255Z,100.00
2022-08-17T22:24:05.605Z,100.00
2022-08-17T22:27:00.478Z,100.00
2022-08-17T22:29:57.362Z,100.00
2022-08-17T22:32:36.126Z,100.00
2022-08-17T22:35:19.571Z,100.00
2022-08-17T22:37:47.596Z,100.00
2022-08-17T22:40:28.093Z,100.00
2022-08-17T22:42:57.166Z,100.00
2022-08-17T22:45:28.355Z,100.00
2022-08-17T22:47:58.649Z,100.00
2022-08-17T22:50:30.114Z,100.00
2022-08-17T22:53:18.088Z,100.00
2022-08-17T22:56:08.843Z,100.00
2022-08-17T22:59:02.229Z,100.00
2022-08-17T23:01:35.370Z,100.00
2022-08-17T23:04:06.587Z,100.00
2022-08-17T23:06:36.665Z,100.00
2022-08-17T23:09:06.157Z,100.00
2022-08-17T23:11:48.771Z,100.00
2022-08-17T23:14:19.145Z,100.00
2022-08-17T23:16:49.712Z,100.00
2022-08-17T23:19:20.911Z,100.00
2022-08-17T23:21:55.161Z,100.00
2022-08-17T23:24:25.307Z,100.00
2022-08-17T23:26:54.173Z,100.00
2022-08-17T23:29:22.494Z,100.00
2022-08-17T23:31:52.438Z,100.00
2022-08-17T23:34:20.794Z,100.00
2022-08-17T23:36:52.649Z,100.00
2022-08-17T23:39:24.526Z,100.00
2022-08-17T23:41:56.701Z,100.00
2022-08-17T23:44:24.799Z,100.00
2022-08-17T23:46:54.685Z,100.00
2022-08-17T23:49:24.333Z,100.00
2022-08-17T23:51:53.573Z,100.00
2022-08-17T23:54:24.990Z,100.00
2022-08-17T23:56:53.080Z,100.00
2022-08-17T23:59:23.182Z,100.00
